createdAt,value
2018-04-07T00:00:15.685Z,987.74
2018-04-07T00:01:15.850Z,987.76
2018-04-07T00:02:16.054Z,987.76
2018-04-07T00:03:16.184Z,987.72
2018-04-07T00:04:16.346Z,987.72
2018-04-07T00:05:16.513Z,987.74
2018-04-07T00:06:16.681Z,987.68
2018-04-07T00:07:16.858Z,987.71
2018-04-07T00:08:17.019Z,987.68
2018-04-07T00:09:17.186Z,987.68
2018-04-07T00:10:17.351Z,987.68
2018-04-07T00:11:17.524Z,987.69
2018-04-07T00:12:17.684Z,987.69
2018-04-07T00:13:17.881Z,987.64
2018-04-07T00:14:18.025Z,987.66
2018-04-07T00:15:18.190Z,987.68
2018-04-07T00:16:18.349Z,987.62
2018-04-07T00:17:18.518Z,987.64
2018-04-07T00:18:18.698Z,987.64
2018-04-07T00:19:18.836Z,987.64
2018-04-07T00:20:19.003Z,987.61
2018-04-07T00:21:19.168Z,987.60
2018-04-07T00:22:19.329Z,987.59
2018-04-07T00:23:19.493Z,987.58
2018-04-07T00:24:19.662Z,987.59
2018-04-07T00:25:19.832Z,987.56
2018-04-07T00:26:19.998Z,987.62
2018-04-07T00:27:20.157Z,987.53
2018-04-07T00:28:20.318Z,987.54
2018-04-07T00:29:20.493Z,987.52
2018-04-07T00:30:20.654Z,987.52
2018-04-07T00:31:20.816Z,987.48
2018-04-07T00:32:20.982Z,987.50
2018-04-07T00:33:21.148Z,987.48
2018-04-07T00:34:21.308Z,987.47
2018-04-07T00:35:21.476Z,987.49
2018-04-07T00:36:21.636Z,987.47
2018-04-07T00:37:21.797Z,987.41
2018-04-07T00:38:21.957Z,987.41
2018-04-07T00:39:22.166Z,987.43
2018-04-07T00:40:22.293Z,987.41
2018-04-07T00:41:22.476Z,987.40
2018-04-07T00:42:22.628Z,987.38
2018-04-07T00:43:22.790Z,987.38
2018-04-07T00:44:23.110Z,987.38
2018-04-07T00:45:23.241Z,987.35
2018-04-07T00:46:23.434Z,987.36
2018-04-07T00:47:23.710Z,987.38
2018-04-07T00:48:23.612Z,987.38
2018-04-07T00:49:23.886Z,987.34
2018-04-07T00:50:24.056Z,987.32
2018-04-07T00:52:57.740Z,987.30
2018-04-07T00:53:57.404Z,987.31
2018-04-07T00:54:57.566Z,987.29
2018-04-07T00:55:57.732Z,987.25
2018-04-07T00:56:57.896Z,987.22
2018-04-07T00:57:58.058Z,987.22
2018-04-07T00:58:58.223Z,987.22
2018-04-07T00:59:58.392Z,987.20
2018-04-07T01:00:58.554Z,987.22
2018-04-07T01:01:58.720Z,987.21
2018-04-07T01:02:58.901Z,987.20
2018-04-07T01:03:59.086Z,987.21
2018-04-07T01:04:59.251Z,987.14
2018-04-07T01:05:59.414Z,987.15
2018-04-07T01:06:59.580Z,987.12
2018-04-07T01:07:59.744Z,987.12
2018-04-07T01:08:59.908Z,987.11
2018-04-07T01:10:00.102Z,987.15
2018-04-07T01:11:00.396Z,987.11
2018-04-07T01:12:00.425Z,987.11
2018-04-07T01:13:00.580Z,987.03
2018-04-07T01:14:00.748Z,987.02
2018-04-07T01:15:00.917Z,987.04
2018-04-07T01:16:01.079Z,987.02
2018-04-07T01:17:01.240Z,987.05
2018-04-07T01:18:01.409Z,987.04
2018-04-07T01:19:01.580Z,987.01
2018-04-07T01:20:01.799Z,987.00
2018-04-07T01:21:01.932Z,987.00
2018-04-07T01:22:02.085Z,987.01
2018-04-07T01:23:02.261Z,986.99
2018-04-07T01:24:02.421Z,987.03
2018-04-07T01:25:02.582Z,987.03
2018-04-07T01:26:02.739Z,986.99
2018-04-07T01:27:02.913Z,986.99
2018-04-07T01:28:03.081Z,986.94
2018-04-07T01:29:03.244Z,986.97
2018-04-07T01:30:03.405Z,986.94
2018-04-07T01:31:03.699Z,986.90
2018-04-07T01:32:03.741Z,986.90
2018-04-07T01:33:03.903Z,986.87
2018-04-07T01:34:04.067Z,986.87
2018-04-07T01:35:04.234Z,986.86
2018-04-07T01:36:04.394Z,986.84
2018-04-07T01:37:04.676Z,986.81
2018-04-07T01:38:04.711Z,986.79
2018-04-07T01:39:04.880Z,986.77
2018-04-07T01:40:05.044Z,986.81
2018-04-07T01:41:05.208Z,986.74
2018-04-07T01:42:05.368Z,986.77
2018-04-07T01:43:05.538Z,986.75
2018-04-07T01:44:05.698Z,986.76
2018-04-07T01:45:05.856Z,986.74
2018-04-07T01:46:06.025Z,986.77
2018-04-07T01:47:06.179Z,986.80
2018-04-07T01:48:06.343Z,986.81
2018-04-07T01:49:06.518Z,986.79
2018-04-07T01:50:06.680Z,986.74
2018-04-07T01:51:06.846Z,986.76
2018-04-07T01:52:07.005Z,986.79
2018-04-07T01:53:07.169Z,986.74
2018-04-07T01:54:07.327Z,986.79
2018-04-07T01:55:07.667Z,986.79
2018-04-07T01:56:07.609Z,986.81
2018-04-07T01:57:07.780Z,986.77
2018-04-07T01:58:07.942Z,986.75
2018-04-07T01:59:08.106Z,986.81
2018-04-07T02:00:08.270Z,986.77
2018-04-07T02:01:08.445Z,986.76
2018-04-07T02:02:08.615Z,986.75
2018-04-07T02:03:08.749Z,986.78
2018-04-07T02:04:08.915Z,986.76
2018-04-07T02:05:09.081Z,986.72
2018-04-07T02:06:09.247Z,986.68
2018-04-07T02:07:09.396Z,986.67
2018-04-07T02:08:09.554Z,986.66
2018-04-07T02:09:09.726Z,986.68
2018-04-07T02:10:09.889Z,986.64
2018-04-07T02:11:10.119Z,986.65
2018-04-07T02:12:10.159Z,986.66
2018-04-07T02:13:10.329Z,986.70
2018-04-07T02:14:10.486Z,986.67
2018-04-07T02:15:10.652Z,986.68
2018-04-07T02:16:10.816Z,986.71
2018-04-07T02:17:10.978Z,986.70
2018-04-07T02:18:11.156Z,986.67
2018-04-07T02:19:11.303Z,986.64
2018-04-07T02:20:11.473Z,986.62
2018-04-07T02:21:11.626Z,986.64
2018-04-07T02:22:11.788Z,986.63
2018-04-07T02:23:11.946Z,986.63
2018-04-07T02:24:12.108Z,986.65
2018-04-07T02:25:12.272Z,986.62
2018-04-07T02:26:12.492Z,986.62
2018-04-07T02:27:12.619Z,986.59
2018-04-07T02:28:12.782Z,986.56
2018-04-07T02:29:12.947Z,986.62
2018-04-07T02:30:13.107Z,986.59
2018-04-07T02:31:13.267Z,986.59
2018-04-07T02:32:13.428Z,986.55
2018-04-07T02:33:13.668Z,986.57
2018-04-07T02:34:13.752Z,986.57
2018-04-07T02:35:13.985Z,986.55
2018-04-07T02:36:14.091Z,986.55
2018-04-07T02:37:14.291Z,986.50
2018-04-07T02:38:14.454Z,986.55
2018-04-07T02:39:14.610Z,986.46
2018-04-07T02:40:14.765Z,986.50
2018-04-07T02:41:14.936Z,986.51
2018-04-07T02:42:15.219Z,986.46
2018-04-07T02:43:15.265Z,986.46
2018-04-07T02:44:15.424Z,986.45
2018-04-07T02:45:15.582Z,986.47
2018-04-07T02:46:15.743Z,986.45
2018-04-07T02:47:15.919Z,986.44
2018-04-07T02:48:16.059Z,986.44
2018-04-07T02:49:16.220Z,986.43
2018-04-07T02:50:16.512Z,986.43
2018-04-07T02:51:16.560Z,986.44
2018-04-07T02:52:16.731Z,986.43
2018-04-07T02:53:16.887Z,986.40
2018-04-07T02:54:17.043Z,986.42
2018-04-07T02:55:17.203Z,986.43
2018-04-07T02:56:17.367Z,986.42
2018-04-07T02:57:17.597Z,986.45
2018-04-07T02:58:17.889Z,986.45
2018-04-07T02:59:17.791Z,986.44
2018-04-07T03:00:17.955Z,986.46
2018-04-07T03:01:18.121Z,986.42
2018-04-07T03:02:18.294Z,986.44
2018-04-07T03:03:18.455Z,986.43
2018-04-07T03:04:18.616Z,986.45
2018-04-07T03:05:18.987Z,986.43
2018-04-07T03:06:18.935Z,986.46
2018-04-07T03:07:19.098Z,986.47
2018-04-07T03:08:19.268Z,986.44
2018-04-07T03:09:19.430Z,986.46
2018-04-07T03:10:19.593Z,986.43
2018-04-07T03:11:19.759Z,986.43
2018-04-07T03:12:19.924Z,986.43
2018-04-07T03:13:20.083Z,986.39
2018-04-07T03:14:20.240Z,986.39
2018-04-07T03:15:20.409Z,986.37
2018-04-07T03:16:20.576Z,986.40
2018-04-07T03:17:20.735Z,986.38
2018-04-07T03:18:20.895Z,986.39
2018-04-07T03:19:21.047Z,986.38
2018-04-07T03:20:21.218Z,986.41
2018-04-07T03:21:21.370Z,986.37
2018-04-07T03:22:21.531Z,986.40
2018-04-07T03:23:21.678Z,986.46
2018-04-07T03:24:21.862Z,986.46
2018-04-07T03:25:22.027Z,986.45
2018-04-07T03:26:22.188Z,986.43
2018-04-07T03:27:22.351Z,986.46
2018-04-07T03:28:22.514Z,986.48
2018-04-07T03:29:22.679Z,986.46
2018-04-07T03:30:22.844Z,986.51
2018-04-07T03:31:23.004Z,986.48
2018-04-07T03:32:23.170Z,986.51
2018-04-07T03:33:23.330Z,986.44
2018-04-07T03:34:23.499Z,986.46
2018-04-07T03:35:23.676Z,986.48
2018-04-07T03:36:23.824Z,986.50
2018-04-07T03:37:23.998Z,986.51
2018-04-07T03:38:24.150Z,986.48
2018-04-07T03:39:24.322Z,986.47
2018-04-07T03:40:24.481Z,986.44
2018-04-07T03:41:24.643Z,986.45
2018-04-07T03:42:24.815Z,986.42
2018-04-07T03:43:24.966Z,986.46
2018-04-07T03:44:25.122Z,986.47
2018-04-07T03:45:25.348Z,986.51
2018-04-07T03:46:25.512Z,986.49
2018-04-07T03:47:25.676Z,986.53
2018-04-07T03:48:25.833Z,986.54
2018-04-07T03:49:26.002Z,986.56
2018-04-07T03:50:26.174Z,986.60
2018-04-07T03:51:26.331Z,986.55
2018-04-07T03:52:26.490Z,986.58
2018-04-07T03:53:26.650Z,986.61
2018-04-07T03:54:26.821Z,986.58
2018-04-07T03:55:26.974Z,986.56
2018-04-07T03:56:27.142Z,986.56
2018-04-07T03:57:27.306Z,986.57
2018-04-07T03:58:27.483Z,986.52
2018-04-07T03:59:28.636Z,986.52
2018-04-07T04:00:29.027Z,986.53
2018-04-07T04:01:28.235Z,986.52
2018-04-07T04:02:28.109Z,986.47
2018-04-07T04:03:28.277Z,986.51
2018-04-07T04:04:28.448Z,986.48
2018-04-07T04:05:28.607Z,986.46
2018-04-07T04:06:28.778Z,986.50
2018-04-07T04:07:28.936Z,986.48
2018-04-07T04:08:29.094Z,986.51
2018-04-07T04:09:29.251Z,986.48
2018-04-07T04:10:29.429Z,986.47
2018-04-07T04:11:29.594Z,986.48
2018-04-07T04:12:29.756Z,986.48
2018-04-07T04:13:29.916Z,986.49
2018-04-07T04:14:30.078Z,986.49
2018-04-07T04:15:30.236Z,986.49
2018-04-07T04:16:30.399Z,986.46
2018-04-07T04:17:30.577Z,986.49
2018-04-07T04:18:30.753Z,986.50
2018-04-07T04:19:30.913Z,986.50
2018-04-07T04:20:31.092Z,986.52
2018-04-07T04:21:31.261Z,986.47
2018-04-07T04:22:31.445Z,986.43
2018-04-07T04:23:31.609Z,986.45
2018-04-07T04:24:31.772Z,986.44
2018-04-07T04:25:31.960Z,986.45
2018-04-07T04:26:32.132Z,986.47
2018-04-07T04:27:32.301Z,986.49
2018-04-07T04:28:32.467Z,986.49
2018-04-07T04:29:32.628Z,986.48
2018-04-07T04:30:32.795Z,986.48
2018-04-07T04:31:32.949Z,986.50
2018-04-07T04:32:33.109Z,986.48
2018-04-07T04:33:33.276Z,986.48
2018-04-07T04:34:33.429Z,986.46
2018-04-07T04:35:33.591Z,986.44
2018-04-07T04:36:33.751Z,986.40
2018-04-07T04:37:33.914Z,986.37
2018-04-07T04:38:34.078Z,986.40
2018-04-07T04:39:34.240Z,986.46
2018-04-07T04:40:34.401Z,986.42
2018-04-07T04:41:34.567Z,986.38
2018-04-07T04:42:34.739Z,986.43
2018-04-07T04:43:34.898Z,986.40
2018-04-07T04:44:35.058Z,986.52
2018-04-07T04:45:35.213Z,986.46
2018-04-07T04:46:35.375Z,986.47
2018-04-07T04:47:35.541Z,986.41
2018-04-07T04:48:35.702Z,986.46
2018-04-07T04:49:35.866Z,986.47
2018-04-07T04:50:36.037Z,986.44
2018-04-07T04:51:36.202Z,986.44
2018-04-07T04:52:36.372Z,986.49
2018-04-07T04:53:36.538Z,986.45
2018-04-07T04:54:36.698Z,986.49
2018-04-07T04:55:36.850Z,986.43
2018-04-07T04:56:37.019Z,986.43
2018-04-07T04:57:37.181Z,986.40
2018-04-07T04:58:37.345Z,986.41
2018-04-07T04:59:37.509Z,986.37
2018-04-07T05:00:37.670Z,986.41
2018-04-07T05:01:37.844Z,986.41
2018-04-07T05:02:37.997Z,986.46
2018-04-07T05:03:38.155Z,986.44
2018-04-07T05:04:38.323Z,986.43
2018-04-07T05:05:38.485Z,986.46
2018-04-07T05:06:38.648Z,986.47
2018-04-07T05:07:38.803Z,986.47
2018-04-07T05:08:38.966Z,986.47
2018-04-07T05:09:39.123Z,986.53
2018-04-07T05:10:39.284Z,986.49
2018-04-07T05:11:39.444Z,986.54
2018-04-07T05:12:39.610Z,986.49
2018-04-07T05:13:39.770Z,986.49
2018-04-07T05:14:39.939Z,986.48
2018-04-07T05:15:40.102Z,986.59
2018-04-07T05:16:40.261Z,986.51
2018-04-07T05:17:40.433Z,986.50
2018-04-07T05:18:40.589Z,986.52
2018-04-07T05:19:40.753Z,986.53
2018-04-07T05:20:40.912Z,986.51
2018-04-07T05:21:41.080Z,986.56
2018-04-07T05:22:41.247Z,986.61
2018-04-07T05:23:41.403Z,986.58
2018-04-07T05:24:41.569Z,986.57
2018-04-07T05:25:41.742Z,986.60
2018-04-07T05:26:41.897Z,986.54
2018-04-07T05:27:42.067Z,986.55
2018-04-07T05:28:42.245Z,986.54
2018-04-07T05:29:42.386Z,986.55
2018-04-07T05:30:42.566Z,986.58
2018-04-07T05:31:42.726Z,986.61
2018-04-07T05:32:42.913Z,986.59
2018-04-07T05:33:43.060Z,986.56
2018-04-07T05:34:43.226Z,986.57
2018-04-07T05:35:43.394Z,986.57
2018-04-07T05:36:43.563Z,986.56
2018-04-07T05:37:43.723Z,986.57
2018-04-07T05:38:43.900Z,986.57
2018-04-07T05:39:44.054Z,986.54
2018-04-07T05:40:44.220Z,986.53
2018-04-07T05:41:44.379Z,986.53
2018-04-07T05:42:44.552Z,986.58
2018-04-07T05:43:44.712Z,986.58
2018-04-07T05:44:44.874Z,986.55
2018-04-07T05:45:45.047Z,986.52
2018-04-07T05:46:45.206Z,986.51
2018-04-07T05:47:45.372Z,986.55
2018-04-07T05:48:45.549Z,986.55
2018-04-07T05:49:45.710Z,986.54
2018-04-07T05:50:45.871Z,986.55
2018-04-07T05:51:46.029Z,986.56
2018-04-07T05:52:46.192Z,986.57
2018-04-07T05:53:46.356Z,986.59
2018-04-07T05:54:46.539Z,986.63
2018-04-07T05:55:46.669Z,986.60
2018-04-07T05:56:46.832Z,986.63
2018-04-07T05:57:46.997Z,986.58
2018-04-07T05:58:47.160Z,986.60
2018-04-07T05:59:47.325Z,986.60
2018-04-07T06:00:47.491Z,986.59
2018-04-07T06:01:47.659Z,986.59
2018-04-07T06:02:47.810Z,986.59
2018-04-07T06:03:47.972Z,986.61
2018-04-07T06:04:48.133Z,986.61
2018-04-07T06:05:48.299Z,986.61
2018-04-07T06:06:48.462Z,986.60
2018-04-07T06:07:48.629Z,986.60
2018-04-07T06:08:48.786Z,986.61
2018-04-07T06:09:48.950Z,986.66
2018-04-07T06:10:49.115Z,986.68
2018-04-07T06:11:49.279Z,986.67
2018-04-07T06:12:49.457Z,986.68
2018-04-07T06:13:49.617Z,986.69
2018-04-07T06:14:49.792Z,986.67
2018-04-07T06:15:49.940Z,986.65
2018-04-07T06:16:50.110Z,986.65
2018-04-07T06:17:50.267Z,986.63
2018-04-07T06:18:50.439Z,986.61
2018-04-07T06:19:50.603Z,986.59
2018-04-07T06:20:50.780Z,986.56
2018-04-07T06:21:50.954Z,986.61
2018-04-07T06:22:51.152Z,986.61
2018-04-07T06:23:51.318Z,986.60
2018-04-07T06:24:51.455Z,986.65
2018-04-07T06:25:51.619Z,986.59
2018-04-07T06:26:51.781Z,986.62
2018-04-07T06:27:51.945Z,986.64
2018-04-07T06:28:52.121Z,986.61
2018-04-07T06:29:52.288Z,986.65
2018-04-07T06:30:52.448Z,986.59
2018-04-07T06:31:52.608Z,986.61
2018-04-07T06:32:52.768Z,986.62
2018-04-07T06:33:52.934Z,986.59
2018-04-07T06:34:53.122Z,986.56
2018-04-07T06:35:53.263Z,986.55
2018-04-07T06:36:53.435Z,986.54
2018-04-07T06:37:53.582Z,986.56
2018-04-07T06:38:53.746Z,986.56
2018-04-07T06:39:53.907Z,986.54
2018-04-07T06:40:54.073Z,986.54
2018-04-07T06:41:54.263Z,986.55
2018-04-07T06:42:54.404Z,986.56
2018-04-07T06:43:54.561Z,986.57
2018-04-07T06:44:54.733Z,986.53
2018-04-07T06:45:54.899Z,986.56
2018-04-07T06:46:55.062Z,986.50
2018-04-07T06:47:55.227Z,986.51
2018-04-07T06:48:55.389Z,986.49
2018-04-07T06:49:55.560Z,986.49
2018-04-07T06:50:55.724Z,986.52
2018-04-07T06:51:55.892Z,986.49
2018-04-07T06:52:56.054Z,986.48
2018-04-07T06:53:56.222Z,986.44
2018-04-07T06:54:56.398Z,986.44
2018-04-07T06:55:56.555Z,986.46
2018-04-07T06:56:56.724Z,986.47
2018-04-07T06:57:56.890Z,986.41
2018-04-07T06:58:57.060Z,986.39
2018-04-07T06:59:57.228Z,986.39
2018-04-07T07:00:57.391Z,986.39
2018-04-07T07:01:57.556Z,986.39
2018-04-07T07:02:57.727Z,986.36
2018-04-07T07:03:57.886Z,986.38
2018-04-07T07:04:58.051Z,986.31
2018-04-07T07:05:58.226Z,986.31
2018-04-07T07:06:58.395Z,986.32
2018-04-07T07:07:58.569Z,986.30
2018-04-07T07:08:58.733Z,986.28
2018-04-07T07:09:58.876Z,986.28
2018-04-07T07:10:59.078Z,986.27
2018-04-07T07:11:59.204Z,986.32
2018-04-07T07:12:59.374Z,986.30
2018-04-07T07:13:59.536Z,986.28
2018-04-07T07:15:00.247Z,986.28
2018-04-07T07:15:59.961Z,986.27
2018-04-07T07:17:00.116Z,986.26
2018-04-07T07:18:00.280Z,986.29
2018-04-07T07:19:00.444Z,986.23
2018-04-07T07:20:00.614Z,986.26
2018-04-07T07:21:00.785Z,986.25
2018-04-07T07:22:00.946Z,986.22
2018-04-07T07:23:01.108Z,986.20
2018-04-07T07:24:01.283Z,986.26
2018-04-07T07:25:01.446Z,986.23
2018-04-07T07:26:01.605Z,986.19
2018-04-07T07:27:01.769Z,986.22
2018-04-07T07:28:01.939Z,986.21
2018-04-07T07:29:02.108Z,986.23
2018-04-07T07:30:02.274Z,986.22
2018-04-07T07:31:02.444Z,986.23
2018-04-07T07:32:02.614Z,986.26
2018-04-07T07:33:02.793Z,986.28
2018-04-07T07:34:02.964Z,986.27
2018-04-07T07:35:03.134Z,986.25
2018-04-07T07:36:03.305Z,986.23
2018-04-07T07:37:03.482Z,986.24
2018-04-07T07:38:03.649Z,986.30
2018-04-07T07:39:03.807Z,986.29
2018-04-07T07:40:03.973Z,986.28
2018-04-07T07:41:04.142Z,986.26
2018-04-07T07:42:04.351Z,986.21
2018-04-07T07:43:04.483Z,986.21
2018-04-07T07:44:04.681Z,986.21
2018-04-07T07:45:04.851Z,986.20
2018-04-07T07:46:05.024Z,986.22
2018-04-07T07:47:05.200Z,986.19
2018-04-07T07:48:05.358Z,986.25
2018-04-07T07:49:05.522Z,986.24
2018-04-07T07:50:05.689Z,986.25
2018-04-07T07:51:05.858Z,986.25
2018-04-07T07:52:06.027Z,986.23
2018-04-07T07:53:06.195Z,986.20
2018-04-07T07:54:06.361Z,986.22
2018-04-07T07:55:06.529Z,986.22
2018-04-07T07:56:06.708Z,986.21
2018-04-07T07:57:06.885Z,986.23
2018-04-07T07:58:07.055Z,986.23
2018-04-07T07:59:07.237Z,986.22
2018-04-07T08:00:07.387Z,986.20
2018-04-07T08:01:07.563Z,986.24
2018-04-07T08:02:07.741Z,986.26
2018-04-07T08:03:07.910Z,986.25
2018-04-07T08:04:08.084Z,986.26
2018-04-07T08:05:08.276Z,986.25
2018-04-07T08:06:08.434Z,986.26
2018-04-07T08:07:08.601Z,986.26
2018-04-07T08:08:08.773Z,986.22
2018-04-07T08:09:08.953Z,986.28
2018-04-07T08:10:09.112Z,986.19
2018-04-07T08:11:09.280Z,986.18
2018-04-07T08:12:09.454Z,986.21
2018-04-07T08:13:09.631Z,986.22
2018-04-07T08:14:09.798Z,986.25
2018-04-07T08:15:10.003Z,986.26
2018-04-07T08:16:10.171Z,986.25
2018-04-07T08:17:10.339Z,986.24
2018-04-07T08:18:10.512Z,986.26
2018-04-07T08:19:10.677Z,986.31
2018-04-07T08:20:10.854Z,986.31
2018-04-07T08:21:11.036Z,986.32
2018-04-07T08:22:11.191Z,986.34
2018-04-07T08:23:11.383Z,986.32
2018-04-07T08:24:11.538Z,986.35
2018-04-07T08:25:11.720Z,986.35
2018-04-07T08:26:11.896Z,986.41
2018-04-07T08:27:12.045Z,986.45
2018-04-07T08:28:12.240Z,986.49
2018-04-07T08:29:12.415Z,986.55
2018-04-07T08:30:12.575Z,986.55
2018-04-07T08:31:12.771Z,986.58
2018-04-07T08:32:12.996Z,986.59
2018-04-07T08:33:13.096Z,986.60
2018-04-07T08:34:13.248Z,986.58
2018-04-07T08:35:13.417Z,986.63
2018-04-07T08:36:13.592Z,986.61
2018-04-07T08:37:14.896Z,986.62
2018-04-07T08:38:13.960Z,986.64
2018-04-07T08:39:14.133Z,986.64
2018-04-07T08:40:14.297Z,986.65
2018-04-07T08:41:14.493Z,986.71
2018-04-07T08:42:29.432Z,986.71
2018-04-07T08:43:14.917Z,986.69
2018-04-07T08:44:15.077Z,986.68
2018-04-07T08:45:15.241Z,986.66
2018-04-07T08:46:15.408Z,986.68
2018-04-07T08:47:15.597Z,986.69
2018-04-07T08:48:15.756Z,986.69
2018-04-07T08:49:15.947Z,986.72
2018-04-07T08:50:16.110Z,986.72
2018-04-07T08:51:16.292Z,986.74
2018-04-07T08:52:16.475Z,986.68
2018-04-07T08:53:16.681Z,986.69
2018-04-07T08:54:16.860Z,986.74
2018-04-07T08:55:17.037Z,986.75
2018-04-07T08:56:17.210Z,986.73
2018-04-07T08:57:17.408Z,986.71
2018-04-07T08:58:17.574Z,986.74
2018-04-07T08:59:17.748Z,986.74
2018-04-07T09:00:17.934Z,986.78
2018-04-07T09:01:18.121Z,986.74
2018-04-07T09:02:18.294Z,986.74
2018-04-07T09:03:18.474Z,986.74
2018-04-07T09:04:18.654Z,986.74
2018-04-07T09:05:18.843Z,986.73
2018-04-07T09:06:19.018Z,986.71
2018-04-07T09:07:19.187Z,986.78
2018-04-07T09:08:19.376Z,986.72
2018-04-07T09:09:19.545Z,986.74
2018-04-07T09:10:19.737Z,986.73
2018-04-07T09:11:19.922Z,986.78
2018-04-07T09:12:20.107Z,986.72
2018-04-07T09:13:20.269Z,986.74
2018-04-07T09:14:20.448Z,986.74
2018-04-07T09:15:20.663Z,986.78
2018-04-07T09:16:20.845Z,986.75
2018-04-07T09:17:21.029Z,986.77
2018-04-07T09:18:21.228Z,986.78
2018-04-07T09:19:21.411Z,986.83
2018-04-07T09:20:21.601Z,986.90
2018-04-07T09:21:21.785Z,987.04
2018-04-07T09:22:21.967Z,987.21
2018-04-07T09:23:22.158Z,987.44
2018-04-07T09:24:22.352Z,987.67
2018-04-07T09:25:22.527Z,987.78
2018-04-07T09:26:22.712Z,987.48
2018-04-07T09:27:22.901Z,987.19
2018-04-07T09:28:23.079Z,987.10
2018-04-07T09:29:23.268Z,987.00
2018-04-07T09:30:23.456Z,987.00
2018-04-07T09:31:23.645Z,986.97
2018-04-07T09:32:23.824Z,986.98
2018-04-07T09:33:24.029Z,986.95
2018-04-07T09:34:24.212Z,987.00
2018-04-07T09:35:24.395Z,986.98
2018-04-07T09:36:24.593Z,986.99
2018-04-07T09:37:24.778Z,986.99
2018-04-07T09:38:24.966Z,987.02
2018-04-07T09:39:25.152Z,987.06
2018-04-07T09:40:25.340Z,987.04
2018-04-07T09:41:25.515Z,987.01
2018-04-07T09:42:25.706Z,986.95
2018-04-07T09:43:25.889Z,986.98
2018-04-07T09:44:26.087Z,986.99
2018-04-07T09:45:26.302Z,986.98
2018-04-07T09:46:26.482Z,986.93
2018-04-07T09:47:26.665Z,986.90
2018-04-07T09:49:20.012Z,986.88
2018-04-07T09:50:19.327Z,986.94
2018-04-07T09:51:19.514Z,986.96
2018-04-07T09:52:19.716Z,986.95
2018-04-07T09:53:19.923Z,987.01
2018-04-07T09:54:20.120Z,987.12
2018-04-07T09:55:20.314Z,987.19
2018-04-07T09:56:20.566Z,987.29
2018-04-07T09:57:20.663Z,987.31
2018-04-07T09:58:20.905Z,987.29
2018-04-07T09:59:21.006Z,987.39
2018-04-07T10:00:21.206Z,987.51
2018-04-07T10:01:21.403Z,987.69
2018-04-07T10:02:21.677Z,987.66
2018-04-07T10:03:21.738Z,987.39
2018-04-07T10:04:21.818Z,987.11
2018-04-07T10:05:22.011Z,987.00
2018-04-07T10:06:22.182Z,986.98
2018-04-07T10:07:22.404Z,987.02
2018-04-07T10:08:22.549Z,987.26
2018-04-07T10:09:22.754Z,987.48
2018-04-07T10:10:22.936Z,987.28
2018-04-07T10:11:23.157Z,987.11
2018-04-07T10:12:23.389Z,987.01
2018-04-07T10:13:23.500Z,986.96
2018-04-07T10:14:23.680Z,986.92
2018-04-07T10:15:23.889Z,986.94
2018-04-07T10:16:24.072Z,987.02
2018-04-07T10:17:24.256Z,987.63
2018-04-07T10:18:24.465Z,988.16
2018-04-07T10:19:24.653Z,988.05
2018-04-07T10:20:24.857Z,987.57
2018-04-07T10:21:25.040Z,987.23
2018-04-07T10:22:25.222Z,987.09
2018-04-07T10:23:25.405Z,987.01
2018-04-07T10:24:25.604Z,986.87
2018-04-07T10:25:25.797Z,986.85
2018-04-07T10:26:25.985Z,986.87
2018-04-07T10:27:26.161Z,986.88
2018-04-07T10:28:26.352Z,986.83
2018-04-07T10:29:26.561Z,986.79
2018-04-07T10:30:26.743Z,986.84
2018-04-07T10:31:26.912Z,987.12
2018-04-07T10:32:27.105Z,987.38
2018-04-07T10:33:27.297Z,987.46
2018-04-07T10:34:27.481Z,987.65
2018-04-07T10:35:27.663Z,987.67
2018-04-07T10:36:27.857Z,987.59
2018-04-07T10:37:28.050Z,987.51
2018-04-07T10:38:28.254Z,987.48
2018-04-07T10:39:28.440Z,987.53
2018-04-07T10:40:28.620Z,987.54
2018-04-07T10:41:28.816Z,987.47
2018-04-07T10:42:29.017Z,987.39
2018-04-07T10:43:29.213Z,987.32
2018-04-07T10:44:29.405Z,987.26
2018-04-07T10:45:29.585Z,987.13
2018-04-07T10:46:29.784Z,987.05
2018-04-07T10:47:29.984Z,987.04
2018-04-07T10:48:30.186Z,986.91
2018-04-07T10:49:30.374Z,986.84
2018-04-07T10:50:30.580Z,986.86
2018-04-07T10:51:30.784Z,986.85
2018-04-07T10:52:31.008Z,986.79
2018-04-07T10:53:31.143Z,986.76
2018-04-07T10:54:31.340Z,986.77
2018-04-07T10:55:31.533Z,986.98
2018-04-07T10:56:31.737Z,986.73
2018-04-07T10:57:31.912Z,986.51
2018-04-07T10:58:32.113Z,986.56
2018-04-07T10:59:32.297Z,986.42
2018-04-07T11:00:32.501Z,986.28
2018-04-07T11:01:32.691Z,986.27
2018-04-07T11:02:32.883Z,986.21
2018-04-07T11:03:33.092Z,986.23
2018-04-07T11:04:33.272Z,986.15
2018-04-07T11:05:33.463Z,986.12
2018-04-07T11:06:33.640Z,986.06
2018-04-07T11:07:33.861Z,986.08
2018-04-07T11:08:34.097Z,986.04
2018-04-07T11:09:34.191Z,986.06
2018-04-07T11:10:34.396Z,986.02
2018-04-07T11:11:34.604Z,986.02
2018-04-07T11:12:34.794Z,986.03
2018-04-07T11:13:34.988Z,986.06
2018-04-07T11:14:35.175Z,986.02
2018-04-07T11:15:35.379Z,985.96
2018-04-07T11:16:35.596Z,985.93
2018-04-07T11:17:35.785Z,985.95
2018-04-07T11:18:35.995Z,985.91
2018-04-07T11:19:36.180Z,985.92
2018-04-07T11:20:36.385Z,985.95
2018-04-07T11:21:36.560Z,986.00
2018-04-07T11:22:36.776Z,986.05
2018-04-07T11:23:36.953Z,986.09
2018-04-07T11:24:37.145Z,986.15
2018-04-07T11:25:37.340Z,986.16
2018-04-07T11:26:37.537Z,986.18
2018-04-07T11:27:37.735Z,986.17
2018-04-07T11:28:37.933Z,986.23
2018-04-07T11:29:38.117Z,986.25
2018-04-07T11:30:38.324Z,986.25
2018-04-07T11:31:38.529Z,986.25
2018-04-07T11:32:38.713Z,986.31
2018-04-07T11:33:38.911Z,986.31
2018-04-07T11:34:39.112Z,986.32
2018-04-07T11:35:39.308Z,986.35
2018-04-07T11:36:39.505Z,986.40
2018-04-07T11:37:39.704Z,986.37
2018-04-07T11:38:39.913Z,986.35
2018-04-07T11:39:40.080Z,986.41
2018-04-07T11:40:40.293Z,986.39
2018-04-07T11:41:40.476Z,986.44
2018-04-07T11:42:40.718Z,986.52
2018-04-07T11:43:40.889Z,986.47
2018-04-07T11:44:41.097Z,986.52
2018-04-07T11:45:41.293Z,986.53
2018-04-07T11:46:41.484Z,986.48
2018-04-07T11:47:41.676Z,986.50
2018-04-07T11:48:41.883Z,986.56
2018-04-07T11:49:42.075Z,986.56
2018-04-07T11:50:42.279Z,986.53
2018-04-07T11:51:42.464Z,986.55
2018-04-07T11:52:42.684Z,986.54
2018-04-07T11:53:42.875Z,986.56
2018-04-07T11:54:43.082Z,986.54
2018-04-07T11:55:43.289Z,986.53
2018-04-07T11:56:44.468Z,986.48
2018-04-07T11:57:43.679Z,986.44
2018-04-07T11:58:44.043Z,986.44
2018-04-07T11:59:44.046Z,986.44
2018-04-07T12:00:44.248Z,986.37
2018-04-07T12:01:44.431Z,986.41
2018-04-07T12:02:44.686Z,986.34
2018-04-07T12:03:44.844Z,986.30
2018-04-07T12:04:45.048Z,986.31
2018-04-07T12:05:45.236Z,986.25
2018-04-07T12:06:45.445Z,986.24
2018-04-07T12:07:45.630Z,986.23
2018-04-07T12:08:45.838Z,986.21
2018-04-07T12:09:46.040Z,986.15
2018-04-07T12:10:46.202Z,986.08
2018-04-07T12:11:46.412Z,986.05
2018-04-07T12:12:46.607Z,986.07
2018-04-07T12:13:46.811Z,985.99
2018-04-07T12:14:47.013Z,985.96
2018-04-07T12:15:47.204Z,985.93
2018-04-07T12:16:47.407Z,985.91
2018-04-07T12:17:47.620Z,985.89
2018-04-07T12:18:47.926Z,985.65
2018-04-07T12:19:47.959Z,985.50
2018-04-07T12:20:48.376Z,985.53
2018-04-07T12:21:48.568Z,985.70
2018-04-07T12:22:48.660Z,985.37
2018-04-07T12:23:48.859Z,985.15
2018-04-07T12:24:49.045Z,985.08
2018-04-07T12:25:49.336Z,985.08
2018-04-07T12:26:49.531Z,985.01
2018-04-07T12:27:49.664Z,985.08
2018-04-07T12:28:49.875Z,984.99
2018-04-07T12:29:50.035Z,985.11
2018-04-07T12:30:50.258Z,985.05
2018-04-07T12:31:50.412Z,985.08
2018-04-07T12:32:50.602Z,985.22